Time;durP1;ratioP1;P1;durP2;ratioP2;P2;SDS_P1;SDS_P2;PMS_P1;PMS_P2;Temp;Humidity;BMP_temperature;BMP_pressure;BME280_temperature;BME280_humidity;BME280_pressure;Samples;Min_cycle;Max_cycle;Signal;HPM_P1;HPM_P2
2021/11/30 00:01:23;;;;;;;;;13.75;10.75;;;;;5.59;62.50;101833.34;5078719;27;45201;-81
2021/11/30 00:03:48;;;;;;;;;16.00;15.00;;;;;5.57;62.66;101829.88;5069523;27;45508;-82
2021/11/30 00:06:14;;;;;;;;;18.00;16.75;;;;;5.58;62.67;101832.47;5080944;27;45597;-82
2021/11/30 00:08:40;;;;;;;;;19.25;17.25;;;;;5.63;62.61;101835.09;5080972;28;45136;-81
2021/11/30 00:11:09;;;;;;;;;15.75;14.50;;;;;5.63;62.54;101836.00;5068185;27;45246;-81
2021/11/30 00:13:36;;;;;;;;;21.00;17.75;;;;;5.67;62.46;101841.22;5080956;27;45409;-82
2021/11/30 00:16:03;;;;;;;;;20.25;17.25;;;;;5.65;62.60;101838.63;5080913;28;45353;-82
2021/11/30 00:18:33;;;;;;;;;18.25;14.75;;;;;5.65;62.71;101835.13;5079503;28;45748;-81
2021/11/30 00:21:12;;;;;;;;;16.25;16.00;;;;;5.63;62.90;101830.78;5079880;27;45672;-81
2021/11/30 00:23:38;;;;;;;;;18.00;16.25;;;;;5.67;63.09;101831.69;5080534;27;45497;-81
2021/11/30 00:26:06;;;;;;;;;21.75;17.00;;;;;5.70;62.61;101843.88;5080572;28;45385;-82
2021/11/30 00:28:32;;;;;;;;;18.25;17.25;;;;;5.65;62.49;101832.53;5095024;27;45671;-82
2021/11/30 00:30:58;;;;;;;;;17.00;14.75;;;;;5.70;63.01;101831.69;5070866;28;45323;-82
2021/11/30 00:33:24;;;;;;;;;14.25;14.25;;;;;5.74;62.81;101830.84;5110542;27;46056;-83
2021/11/30 00:35:50;;;;;;;;;15.00;13.75;;;;;5.79;62.82;101828.25;5080704;27;45283;-79
2021/11/30 00:38:16;;;;;;;;;16.50;15.50;;;;;5.81;62.77;101817.81;5079764;28;45279;-79
2021/11/30 00:40:44;;;;;;;;;20.50;18.00;;;;;5.84;63.15;101831.75;5086336;27;45452;-79
2021/11/30 00:43:11;;;;;;;;;16.50;14.00;;;;;5.85;62.83;101832.63;5085680;27;45391;-79
2021/11/30 00:45:52;;;;;;;;;17.25;17.25;;;;;5.91;63.16;101824.81;5080085;27;46080;-79
2021/11/30 00:48:21;;;;;;;;;18.75;16.00;;;;;5.94;62.74;101813.53;5080111;27;45844;-79
2021/11/30 00:50:48;;;;;;;;;19.50;15.50;;;;;5.96;62.70;101819.63;5075175;28;45940;-79
2021/11/30 00:53:13;;;;;;;;;16.75;14.75;;;;;5.97;62.76;101808.31;5072158;28;46103;-79
2021/11/30 00:55:39;;;;;;;;;23.00;19.00;;;;;6.00;62.81;101807.47;5079652;27;45529;-79
2021/11/30 00:58:05;;;;;;;;;17.50;13.50;;;;;5.98;62.81;101812.66;5079981;28;45459;-79
2021/11/30 01:00:34;;;;;;;;;15.00;14.25;;;;;6.02;62.74;101819.66;5080719;27;45345;-79
2021/11/30 01:03:00;;;;;;;;;17.50;15.00;;;;;6.00;62.83;101816.13;5080251;27;45377;-78
2021/11/30 01:05:26;;;;;;;;;15.00;13.50;;;;;6.04;63.06;101814.44;5078549;28;47269;-78
2021/11/30 01:07:51;;;;;;;;;18.25;17.00;;;;;6.06;63.25;101808.34;5079770;27;45404;-78
2021/11/30 01:10:17;;;;;;;;;20.75;18.25;;;;;6.13;63.05;101816.22;5081144;27;45382;-81
2021/11/30 01:12:43;;;;;;;;;23.50;19.75;;;;;6.08;62.76;101805.75;5090079;27;45265;-79
2021/11/30 01:15:14;;;;;;;;;20.25;17.25;;;;;6.11;62.83;101799.69;5080045;27;45503;-80
2021/11/30 01:17:39;;;;;;;;;17.00;16.75;;;;;6.13;62.95;101806.66;5079825;28;45761;-80
2021/11/30 01:20:08;;;;;;;;;18.50;18.50;;;;;6.14;62.51;101807.53;5096872;27;45200;-80
2021/11/30 01:22:33;;;;;;;;;21.00;18.00;;;;;6.15;62.74;101796.25;5091134;27;45554;-79
2021/11/30 01:24:58;;;;;;;;;17.75;17.00;;;;;6.17;62.43;101803.19;5075160;27;45405;-79
2021/11/30 01:27:24;;;;;;;;;18.75;16.00;;;;;6.14;62.96;101799.69;5070225;28;45659;-79
2021/11/30 01:29:49;;;;;;;;;19.25;17.00;;;;;6.18;63.00;101796.22;5104190;27;45500;-79
2021/11/30 01:32:15;;;;;;;;;20.50;18.00;;;;;6.18;63.30;101791.00;5090504;27;46199;-79
2021/11/30 01:34:40;;;;;;;;;22.75;18.00;;;;;6.23;63.18;101793.63;5079830;28;45440;-80
2021/11/30 01:37:11;;;;;;;;;18.00;18.00;;;;;6.21;63.19;101785.78;5079354;27;45436;-80
2021/11/30 01:39:37;;;;;;;;;15.50;15.50;;;;;6.23;63.12;101784.06;5088931;27;45545;-79
2021/11/30 01:42:03;;;;;;;;;17.75;17.00;;;;;6.23;62.92;101788.41;5082045;27;45510;-80
2021/11/30 01:49:34;;;;;;;;;19.75;14.00;;;;;6.27;62.90;101790.16;5087454;27;45242;-80
2021/11/30 01:52:00;;;;;;;;;17.25;13.00;;;;;6.29;62.66;101783.22;5081381;27;46296;-80
2021/11/30 01:54:25;;;;;;;;;17.75;16.00;;;;;6.34;63.09;101786.69;5081496;27;45563;-80
2021/11/30 01:56:51;;;;;;;;;17.50;15.00;;;;;6.37;62.93;101778.84;5082803;28;45226;-80
2021/11/30 01:59:17;;;;;;;;;17.00;15.75;;;;;6.32;63.39;101766.69;5081604;27;45362;-79
2021/11/30 02:01:42;;;;;;;;;15.00;13.00;;;;;6.38;63.09;101766.66;5082808;27;45408;-79
2021/11/30 02:04:08;;;;;;;;;16.50;12.50;;;;;6.36;63.26;101757.97;5082539;28;45507;-79
2021/11/30 02:06:34;;;;;;;;;18.25;17.00;;;;;6.35;63.15;101757.09;5075180;27;46015;-77
2021/11/30 02:08:59;;;;;;;;;17.00;14.25;;;;;6.35;63.27;101762.31;5078460;27;45262;-77
2021/11/30 02:11:25;;;;;;;;;16.00;16.00;;;;;6.38;63.56;101766.66;5075463;28;45624;-77
2021/11/30 02:13:52;;;;;;;;;14.00;13.00;;;;;6.39;63.26;101752.75;5078819;28;45410;-77
2021/11/30 02:16:20;;;;;;;;;22.00;17.00;;;;;6.42;63.33;101747.50;5082522;27;45449;-77
2021/11/30 02:18:47;;;;;;;;;17.75;16.75;;;;;6.46;63.59;101737.94;5083401;27;45287;-77
2021/11/30 02:21:12;;;;;;;;;16.25;12.75;;;;;6.49;63.74;101737.97;5081241;28;46092;-78
2021/11/30 02:23:43;;;;;;;;;17.00;12.75;;;;;6.51;62.92;101750.16;5082100;27;46020;-78
2021/11/30 02:26:12;;;;;;;;;18.75;14.50;;;;;6.52;62.81;101757.09;5077725;28;45239;-79
2021/11/30 02:28:44;;;;;;;;;13.00;12.75;;;;;6.48;63.12;101747.53;5069368;27;45282;-79
2021/11/30 02:31:13;;;;;;;;;23.00;20.00;;;;;6.46;63.73;101743.19;5088203;27;45240;-78
2021/11/30 02:33:39;;;;;;;;;17.00;16.75;;;;;6.46;63.26;101733.59;5081990;27;45389;-81
2021/11/30 02:36:26;;;;;;;;;19.00;16.25;;;;;6.48;63.35;101741.44;5081644;27;45438;-80
2021/11/30 02:38:54;;;;;;;;;19.75;16.75;;;;;6.47;63.45;101740.56;5080981;27;45449;-80
2021/11/30 02:41:20;;;;;;;;;18.00;16.50;;;;;6.48;63.18;101734.47;5077448;27;46807;-78
2021/11/30 02:43:46;;;;;;;;;20.75;17.75;;;;;6.51;63.48;101733.59;5077091;28;46237;-78
2021/11/30 02:46:31;;;;;;;;;18.50;15.75;;;;;6.51;63.08;101721.41;5082347;27;45409;-78
2021/11/30 02:48:56;;;;;;;;;15.50;13.00;;;;;6.53;63.08;101719.69;5082575;27;45246;-78
2021/11/30 02:51:22;;;;;;;;;17.25;15.75;;;;;6.57;63.25;101719.69;5082255;27;45442;-78
2021/11/30 02:53:48;;;;;;;;;16.00;12.75;;;;;6.60;63.12;101711.81;5081732;27;46314;-79
2021/11/30 02:56:13;;;;;;;;;13.50;12.25;;;;;6.60;63.09;101698.75;5075006;27;45431;-79
2021/11/30 02:58:39;;;;;;;;;12.00;12.00;;;;;6.62;63.09;101710.06;5074940;28;45393;-79
2021/11/30 03:01:06;;;;;;;;;17.25;12.25;;;;;6.63;63.12;101719.66;5097507;27;45585;-79
2021/11/30 03:03:32;;;;;;;;;19.75;17.25;;;;;6.67;62.86;101723.16;5080639;28;45452;-79
2021/11/30 03:05:57;;;;;;;;;15.50;14.25;;;;;6.60;63.31;101724.88;5082947;27;45336;-79
2021/11/30 03:08:23;;;;;;;;;13.50;13.50;;;;;6.65;62.66;101725.75;5107267;27;45367;-79
2021/11/30 03:10:48;;;;;;;;;17.75;16.25;;;;;6.66;62.90;101737.97;5081025;27;45618;-78
2021/11/30 03:13:14;;;;;;;;;14.50;12.50;;;;;6.66;62.43;101735.34;5081610;28;45580;-80
2021/11/30 03:15:39;;;;;;;;;16.50;14.25;;;;;6.66;62.99;101724.91;5080030;27;45222;-78
2021/11/30 03:18:05;;;;;;;;;16.25;13.50;;;;;6.67;62.71;101726.63;5073990;28;45199;-78
2021/11/30 03:20:31;;;;;;;;;19.00;16.25;;;;;6.67;62.57;101721.41;5081800;27;45440;-78
2021/11/30 03:22:56;;;;;;;;;17.00;16.25;;;;;6.68;63.10;101704.88;5081475;27;45984;-78
2021/11/30 03:25:22;;;;;;;;;14.50;13.50;;;;;6.75;63.10;101700.50;5081192;27;45286;-78
2021/11/30 03:27:48;;;;;;;;;16.50;13.75;;;;;6.75;62.71;101698.75;5081725;27;45443;-77
2021/11/30 03:30:14;;;;;;;;;16.75;14.50;;;;;6.81;62.89;101712.69;5081355;27;45349;-79
2021/11/30 03:35:23;;;;;;;;;18.00;17.00;;;;;6.80;63.00;101701.34;5081127;28;45436;-78
2021/11/30 03:37:49;;;;;;;;;16.00;14.00;;;;;6.83;62.57;101716.16;5081429;27;45317;-80
2021/11/30 03:40:15;;;;;;;;;14.50;14.50;;;;;6.85;62.42;101719.66;5081129;27;45481;-79
2021/11/30 03:42:40;;;;;;;;;14.75;12.50;;;;;6.79;62.54;101719.66;5081336;27;45405;-80
2021/11/30 03:45:07;;;;;;;;;18.00;12.75;;;;;6.78;62.76;101728.38;5089626;27;45337;-81
2021/11/30 03:47:32;;;;;;;;;16.25;14.25;;;;;6.73;62.21;101738.81;5085938;27;45330;-81
2021/11/30 03:49:58;;;;;;;;;16.50;14.50;;;;;6.73;62.78;101750.16;5081317;27;45288;-82
2021/11/30 03:52:23;;;;;;;;;16.25;15.25;;;;;6.74;62.91;101744.03;5081313;27;46216;-83
2021/11/30 03:54:49;;;;;;;;;15.50;14.25;;;;;6.77;62.54;101758.84;5085432;27;45430;-81
2021/11/30 03:57:14;;;;;;;;;14.75;13.25;;;;;6.75;62.82;101755.38;5093382;27;45230;-80
2021/11/30 03:59:40;;;;;;;;;16.50;13.50;;;;;6.77;62.60;101750.13;5080994;27;45500;-81
2021/11/30 04:02:05;;;;;;;;;17.25;12.75;;;;;6.75;63.05;101748.41;5081298;27;45255;-82
2021/11/30 04:04:35;;;;;;;;;16.50;15.75;;;;;6.74;62.59;101746.66;5078894;27;45386;-81
2021/11/30 04:07:00;;;;;;;;;15.25;14.25;;;;;6.79;63.02;101756.25;5081365;27;45393;-81
2021/11/30 04:09:26;;;;;;;;;13.75;12.00;;;;;6.77;62.69;101752.75;5080591;27;45423;-81
2021/11/30 04:11:53;;;;;;;;;21.00;16.75;;;;;6.82;63.23;101745.78;5081061;27;46359;-80
2021/11/30 04:14:19;;;;;;;;;17.75;14.50;;;;;6.85;62.90;101745.78;5080605;27;45383;-79
2021/11/30 04:16:45;;;;;;;;;17.25;15.00;;;;;6.88;62.88;101745.78;5080267;27;45244;-80
2021/11/30 04:19:10;;;;;;;;;17.25;14.25;;;;;6.94;63.19;101743.16;5080797;27;45386;-80
2021/11/30 04:21:36;;;;;;;;;13.75;13.25;;;;;6.96;62.85;101733.56;5076096;28;47368;-80
2021/11/30 04:24:02;;;;;;;;;18.25;15.00;;;;;7.02;63.33;101747.50;5075848;28;45369;-81
2021/11/30 04:26:28;;;;;;;;;19.50;15.25;;;;;7.00;62.99;101729.22;5080351;27;45417;-81
2021/11/30 04:28:54;;;;;;;;;16.00;14.00;;;;;7.01;62.94;101741.41;5080812;28;45394;-81
2021/11/30 04:31:20;;;;;;;;;18.50;15.75;;;;;7.00;63.05;101749.25;5080182;27;45341;-78
2021/11/30 04:33:45;;;;;;;;;16.50;15.00;;;;;6.98;63.16;101742.28;5079119;27;45318;-79
2021/11/30 04:36:11;;;;;;;;;16.75;15.75;;;;;6.96;63.32;101733.56;5090256;27;45411;-81
2021/11/30 04:38:38;;;;;;;;;17.50;15.50;;;;;6.96;62.89;101730.09;5081160;27;45378;-80
2021/11/30 04:41:04;;;;;;;;;17.00;17.00;;;;;6.95;63.28;101721.38;5078972;27;47292;-81
2021/11/30 04:43:37;;;;;;;;;18.50;14.75;;;;;6.93;63.24;101712.66;5080273;27;45706;-81
2021/11/30 04:46:21;;;;;;;;;20.00;19.00;;;;;6.94;63.60;101719.63;5080468;27;45325;-80
2021/11/30 04:48:56;;;;;;;;;20.00;15.75;;;;;6.98;63.00;101716.16;5080447;28;45361;-81
2021/11/30 04:51:23;;;;;;;;;29.00;20.25;;;;;6.97;63.70;101714.41;5080205;27;46229;-79
2021/11/30 04:53:50;;;;;;;;;24.00;20.50;;;;;6.98;64.16;101710.91;5075544;28;45323;-82
2021/11/30 04:56:16;;;;;;;;;19.25;18.25;;;;;6.98;64.21;101699.59;5078799;27;45230;-80
2021/11/30 04:58:43;;;;;;;;;17.50;16.00;;;;;6.98;63.86;101710.03;5080354;27;45226;-83
2021/11/30 05:01:08;;;;;;;;;16.25;16.25;;;;;6.96;64.23;101704.78;5080136;27;45461;-84
2021/11/30 05:03:34;;;;;;;;;19.50;17.75;;;;;6.96;64.30;101711.78;5080129;27;45438;-84
2021/11/30 05:06:00;;;;;;;;;17.25;14.00;;;;;6.95;64.25;101716.16;5084641;27;45520;-83
2021/11/30 05:08:27;;;;;;;;;17.50;14.00;;;;;6.96;64.47;101720.47;5078468;28;45957;-83
2021/11/30 05:10:52;;;;;;;;;13.25;13.00;;;;;6.95;64.25;101721.38;5080299;27;45418;-83
2021/11/30 05:13:18;;;;;;;;;18.00;14.75;;;;;6.96;64.00;101728.31;5079746;27;45259;-83
2021/11/30 05:15:43;;;;;;;;;20.75;17.25;;;;;6.97;64.24;101724.84;5080499;27;45707;-81
2021/11/30 05:18:09;;;;;;;;;17.25;14.00;;;;;6.94;64.82;101716.16;5075052;27;45586;-80
2021/11/30 05:20:34;;;;;;;;;17.25;14.75;;;;;6.96;64.38;101723.09;5072108;28;45428;-79
2021/11/30 05:23:00;;;;;;;;;17.25;14.00;;;;;6.94;64.39;101722.22;5079403;28;45238;-79
2021/11/30 05:25:33;;;;;;;;;17.25;17.25;;;;;6.91;64.68;101719.66;5079820;28;45230;-80
2021/11/30 05:28:00;;;;;;;;;18.50;15.00;;;;;6.90;64.60;101719.63;5080094;27;45409;-80
2021/11/30 05:30:25;;;;;;;;;14.25;12.75;;;;;6.82;64.69;101720.50;5079324;27;45435;-80
2021/11/30 05:32:50;;;;;;;;;15.00;12.75;;;;;6.82;64.91;101723.13;5079927;27;45405;-78
2021/11/30 05:35:17;;;;;;;;;13.00;13.00;;;;;6.82;65.25;101720.50;5070894;28;45473;-80
2021/11/30 05:37:42;;;;;;;;;21.75;17.00;;;;;6.81;65.16;101715.31;5078508;28;45591;-82
2021/11/30 05:40:08;;;;;;;;;18.00;14.75;;;;;6.79;65.07;101706.59;5095418;27;47139;-81
2021/11/30 05:42:34;;;;;;;;;14.75;14.00;;;;;6.81;65.27;101703.13;5078207;28;45489;-81
2021/11/30 05:44:59;;;;;;;;;19.50;15.50;;;;;6.80;64.84;101703.09;5079549;28;45383;-81
2021/11/30 05:47:25;;;;;;;;;16.00;11.50;;;;;6.82;64.94;101717.03;5079725;27;45322;-81
2021/11/30 05:49:50;;;;;;;;;19.00;15.25;;;;;6.85;64.78;101709.19;5079924;27;46220;-81
2021/11/30 05:52:16;;;;;;;;;15.50;13.75;;;;;6.84;64.89;101703.09;5079271;27;45403;-82
2021/11/30 05:54:41;;;;;;;;;14.75;14.75;;;;;6.83;65.17;101703.09;5079329;27;45456;-81
2021/11/30 05:57:10;;;;;;;;;17.00;13.50;;;;;6.84;64.71;101703.09;5079145;27;45381;-83
2021/11/30 05:59:39;;;;;;;;;18.50;12.75;;;;;6.83;65.22;101706.59;5079462;27;46362;-83
2021/11/30 06:02:08;;;;;;;;;20.75;17.00;;;;;6.83;64.91;101701.38;5079227;27;45919;-85
2021/11/30 06:04:34;;;;;;;;;15.00;12.25;;;;;6.82;65.07;101701.34;5082147;27;45227;-84
2021/11/30 06:07:09;;;;;;;;;18.75;15.00;;;;;6.80;65.61;101695.25;5088262;27;45429;-84
2021/11/30 06:09:57;;;;;;;;;13.50;12.75;;;;;6.85;65.49;101704.84;5078543;27;45458;-84
2021/11/30 06:12:31;;;;;;;;;21.25;18.00;;;;;6.82;65.13;101707.44;5069091;28;45256;-85
2021/11/30 06:14:57;;;;;;;;;30.25;22.75;;;;;6.83;65.40;101705.72;5068069;27;45417;-82
2021/11/30 06:17:22;;;;;;;;;19.00;18.50;;;;;6.84;65.25;101705.69;5079218;27;45443;-80
2021/11/30 06:19:47;;;;;;;;;15.00;15.00;;;;;6.87;65.23;101715.28;5079423;27;45438;-83
2021/11/30 06:22:13;;;;;;;;;13.50;13.50;;;;;6.86;64.89;101711.78;5078779;27;45694;-84
2021/11/30 06:24:38;;;;;;;;;15.25;12.00;;;;;6.87;65.25;101717.91;5081924;27;45335;-84
2021/11/30 06:27:11;;;;;;;;;17.75;14.50;;;;;6.90;65.23;101711.78;5088660;27;45449;-85
2021/11/30 06:29:37;;;;;;;;;15.00;14.00;;;;;6.93;65.71;101712.66;5078953;27;46320;-82
2021/11/30 06:32:02;;;;;;;;;16.00;14.00;;;;;6.93;64.96;101717.91;5075484;27;45156;-83
2021/11/30 06:37:58;;;;;;;;;12.25;11.75;;;;;6.94;65.72;101711.78;5015781;28;46402;-82
2021/11/30 06:40:24;;;;;;;;;18.75;17.75;;;;;6.91;65.47;101711.81;5078951;27;46970;-82
2021/11/30 06:42:49;;;;;;;;;19.00;17.25;;;;;6.96;65.42;101717.03;5082526;27;45399;-82
2021/11/30 06:45:15;;;;;;;;;15.75;14.00;;;;;6.96;65.86;101707.41;5096593;27;45296;-82
2021/11/30 06:47:43;;;;;;;;;18.00;14.50;;;;;6.96;65.45;101720.47;5093023;27;45271;-84
2021/11/30 06:50:10;;;;;;;;;14.00;13.25;;;;;6.98;65.96;101708.31;5081981;27;46442;-86
2021/11/30 06:52:38;;;;;;;;;19.50;16.25;;;;;6.98;65.36;101695.25;5082033;27;45334;-82
2021/11/30 06:55:04;;;;;;;;;14.25;11.75;;;;;6.98;65.75;101684.78;5079748;27;45514;-83
2021/11/30 06:57:29;;;;;;;;;15.00;15.00;;;;;6.98;65.31;101683.91;5081387;27;45331;-84
2021/11/30 06:59:59;;;;;;;;;17.00;14.25;;;;;7.00;65.39;101704.81;5081754;27;45357;-81
2021/11/30 07:02:25;;;;;;;;;13.00;10.75;;;;;7.01;65.54;101706.56;5082141;27;45672;-80
2021/11/30 07:04:53;;;;;;;;;19.25;17.50;;;;;7.03;65.63;101699.56;5082087;27;45424;-80
2021/11/30 07:07:30;;;;;;;;;11.75;11.00;;;;;7.07;65.51;101693.44;5082100;28;45516;-80
2021/11/30 07:15:07;;;;;;;;;20.75;16.00;;;;;7.17;65.79;101695.19;5081884;27;45338;-80
2021/11/30 07:17:32;;;;;;;;;16.25;14.00;;;;;7.19;65.80;101693.41;5081612;27;45455;-81
2021/11/30 07:19:59;;;;;;;;;9.50;9.50;;;;;7.24;65.59;101706.47;5081840;27;46274;-81
2021/11/30 07:22:25;;;;;;;;;15.00;14.25;;;;;7.22;66.07;101694.28;5080439;28;45398;-81
2021/11/30 07:24:51;;;;;;;;;17.00;14.00;;;;;7.25;65.48;101702.13;5098803;27;45482;-80
2021/11/30 07:27:17;;;;;;;;;19.25;14.50;;;;;7.25;65.53;101707.34;5080283;27;45665;-81
2021/11/30 07:29:42;;;;;;;;;13.00;11.25;;;;;7.28;65.68;101717.81;5076661;27;45488;-81
2021/11/30 07:32:08;;;;;;;;;17.25;15.50;;;;;7.28;65.73;101707.34;5089387;27;45343;-82
2021/11/30 07:34:34;;;;;;;;;17.00;14.75;;;;;7.29;65.96;101706.47;5074147;28;45276;-81
2021/11/30 07:37:00;;;;;;;;;19.50;15.25;;;;;7.29;65.75;101709.06;5097276;27;46188;-81
2021/11/30 07:39:25;;;;;;;;;18.75;14.25;;;;;7.34;65.92;101709.94;5096695;27;46263;-81
2021/11/30 07:41:51;;;;;;;;;18.75;15.00;;;;;7.35;65.51;101709.06;5077622;28;45239;-81
2021/11/30 07:44:16;;;;;;;;;17.00;14.50;;;;;7.37;66.08;101711.66;5073475;28;45465;-80
2021/11/30 07:46:42;;;;;;;;;16.75;13.25;;;;;7.38;66.17;101714.25;5087277;27;45355;-80
2021/11/30 07:49:07;;;;;;;;;16.25;13.25;;;;;7.41;65.89;101714.25;5080152;27;48498;-80
2021/11/30 07:51:33;;;;;;;;;22.00;16.50;;;;;7.46;66.30;101714.25;5074831;27;45387;-80
2021/11/30 07:53:59;;;;;;;;;18.00;14.00;;;;;7.47;66.44;101712.50;5084859;27;45599;-80
2021/11/30 07:56:25;;;;;;;;;15.25;14.50;;;;;7.49;66.24;101708.13;5091857;27;45585;-80
2021/11/30 07:58:50;;;;;;;;;17.75;16.50;;;;;7.53;66.16;101708.09;5081252;27;45446;-81
2021/11/30 08:01:16;;;;;;;;;21.75;15.75;;;;;7.57;66.10;101713.31;5079788;27;45559;-80
2021/11/30 08:03:43;;;;;;;;;16.75;16.25;;;;;7.58;65.99;101712.47;5086623;27;45386;-80
2021/11/30 08:06:09;;;;;;;;;21.25;19.25;;;;;7.59;66.28;101709.84;5084320;27;45522;-80
2021/11/30 08:08:35;;;;;;;;;16.25;11.25;;;;;7.65;66.16;101722.03;5080677;28;46435;-80
2021/11/30 08:11:00;;;;;;;;;20.75;19.00;;;;;7.62;66.52;101722.91;5085175;27;45700;-80
2021/11/30 08:13:26;;;;;;;;;24.25;17.25;;;;;7.63;65.76;101721.16;5095162;27;45286;-81
2021/11/30 08:15:51;;;;;;;;;21.75;18.50;;;;;7.67;66.07;101727.25;5081739;27;45312;-80
2021/11/30 08:18:16;;;;;;;;;22.25;21.00;;;;;7.68;66.33;101723.75;5080063;27;45315;-80
2021/11/30 08:20:42;;;;;;;;;20.50;17.50;;;;;7.69;66.13;101717.63;5067359;28;45382;-80
2021/11/30 08:23:07;;;;;;;;;24.25;20.50;;;;;7.64;65.82;101725.50;5074746;27;46027;-79
2021/11/30 08:25:33;;;;;;;;;29.75;23.75;;;;;7.71;65.91;101735.06;5072269;27;45435;-79
2021/11/30 08:27:58;;;;;;;;;22.00;22.00;;;;;7.74;65.84;101742.03;5079986;27;45526;-79
2021/11/30 08:30:24;;;;;;;;;22.50;19.75;;;;;7.71;65.91;101737.69;5078835;27;45558;-79
2021/11/30 08:32:49;;;;;;;;;25.25;22.00;;;;;7.74;65.78;101734.19;5081167;27;45496;-80
2021/11/30 08:35:15;;;;;;;;;24.75;21.50;;;;;7.79;65.61;101745.50;5078116;27;45239;-80
2021/11/30 08:37:40;;;;;;;;;30.50;22.75;;;;;7.79;65.85;101739.41;5070213;27;45527;-80
2021/11/30 08:40:08;;;;;;;;;27.75;21.00;;;;;7.85;65.83;101742.00;5079496;27;45438;-79
2021/11/30 08:42:34;;;;;;;;;24.75;21.50;;;;;7.83;65.60;101741.97;5073015;27;45454;-79
2021/11/30 08:44:59;;;;;;;;;28.50;23.00;;;;;7.85;66.03;101734.16;5074133;28;45337;-80
2021/11/30 08:47:25;;;;;;;;;27.25;25.00;;;;;7.86;66.19;101739.34;5074277;27;45481;-79
2021/11/30 08:49:54;;;;;;;;;27.75;24.50;;;;;7.91;66.07;101733.22;5080028;27;45237;-79
2021/11/30 08:52:28;;;;;;;;;26.50;22.25;;;;;7.94;65.52;101735.81;5081573;27;45364;-79
2021/11/30 08:54:56;;;;;;;;;28.00;26.25;;;;;7.95;65.78;101729.72;5082064;27;45409;-79
2021/11/30 08:57:23;;;;;;;;;31.25;23.50;;;;;7.99;66.10;101731.44;5080229;27;45511;-79
2021/11/30 08:59:49;;;;;;;;;29.25;24.00;;;;;7.96;66.54;101732.31;5080245;27;45228;-80
2021/11/30 09:02:16;;;;;;;;;30.75;23.50;;;;;7.99;65.91;101728.81;5079972;27;45181;-80
2021/11/30 09:04:41;;;;;;;;;29.75;25.50;;;;;8.02;65.58;101728.81;5086904;27;45409;-80
2021/11/30 09:07:07;;;;;;;;;22.25;22.25;;;;;8.01;65.52;101724.44;5079901;27;45477;-80
2021/11/30 09:09:32;;;;;;;;;29.00;26.25;;;;;8.02;65.44;101720.94;5079809;27;45225;-80
2021/11/30 09:11:59;;;;;;;;;35.00;29.25;;;;;8.04;65.63;101719.19;5078876;27;45247;-80
2021/11/30 09:14:25;;;;;;;;;26.25;25.25;;;;;8.06;65.91;101727.03;5079589;27;45305;-77
2021/11/30 09:16:53;;;;;;;;;33.50;30.00;;;;;8.10;65.97;101733.97;5079879;28;45374;-78
2021/11/30 09:19:19;;;;;;;;;31.00;29.75;;;;;8.08;65.61;101728.75;5079800;27;45447;-78
2021/11/30 09:21:45;;;;;;;;;31.50;24.25;;;;;8.14;65.31;101737.44;5079543;27;45282;-78
2021/11/30 09:24:10;;;;;;;;;30.50;28.75;;;;;8.12;66.21;101737.47;5071888;27;45788;-78
2021/11/30 09:26:36;;;;;;;;;30.75;25.75;;;;;8.12;66.07;101741.84;5072075;28;46990;-78
2021/11/30 09:29:03;;;;;;;;;29.25;29.25;;;;;8.12;65.61;101737.47;5079019;27;45440;-78
2021/11/30 09:31:28;;;;;;;;;33.50;28.50;;;;;8.15;66.16;101739.22;5066679;28;45468;-80
2021/11/30 09:33:54;;;;;;;;;30.25;27.50;;;;;8.16;66.11;101743.53;5079236;27;45537;-79
2021/11/30 09:36:20;;;;;;;;;32.00;27.00;;;;;8.16;66.16;101744.41;5079342;27;45592;-77
2021/11/30 09:38:45;;;;;;;;;32.00;28.50;;;;;8.21;66.10;101750.50;5077986;27;45405;-76
2021/11/30 09:41:12;;;;;;;;;32.50;28.75;;;;;8.23;65.92;101745.25;5077021;27;45595;-76
2021/11/30 09:43:38;;;;;;;;;30.50;24.50;;;;;8.25;66.17;101747.88;5088851;27;46451;-76
2021/11/30 09:46:05;;;;;;;;;30.75;25.75;;;;;8.25;65.80;101746.09;5076428;28;46194;-76
2021/11/30 09:48:31;;;;;;;;;28.25;25.75;;;;;8.27;65.91;101746.09;5079006;27;45348;-76
2021/11/30 09:50:58;;;;;;;;;31.00;25.75;;;;;8.28;65.70;101738.22;5080003;27;45379;-77
2021/11/30 09:53:26;;;;;;;;;30.50;25.50;;;;;8.33;66.59;101738.19;5083091;27;45364;-77
2021/11/30 09:55:54;;;;;;;;;25.75;24.75;;;;;8.36;66.33;101737.28;5078578;27;46834;-76
2021/11/30 09:58:22;;;;;;;;;32.00;27.75;;;;;8.38;66.20;101736.41;5083140;27;45337;-76
2021/11/30 10:00:49;;;;;;;;;26.50;25.25;;;;;8.43;65.99;101739.00;5078253;27;45496;-76
2021/11/30 10:03:15;;;;;;;;;27.75;22.75;;;;;8.46;66.13;101722.38;5078475;27;45523;-76
2021/11/30 10:05:42;;;;;;;;;32.50;29.00;;;;;8.52;66.08;101714.47;5078548;28;46853;-76
2021/11/30 10:08:29;;;;;;;;;31.00;23.50;;;;;8.52;66.18;101710.09;5077905;27;45452;-76
2021/11/30 10:10:56;;;;;;;;;30.50;27.75;;;;;8.51;66.33;101716.22;5078138;27;45435;-76
2021/11/30 10:13:21;;;;;;;;;26.00;25.75;;;;;8.53;66.32;101718.81;5077990;27;45291;-76
2021/11/30 10:16:01;;;;;;;;;28.50;24.25;;;;;8.52;66.33;101712.69;5080602;28;46450;-76
2021/11/30 10:18:36;;;;;;;;;29.25;26.50;;;;;8.55;65.89;101719.69;5078028;28;45898;-76
2021/11/30 10:21:20;;;;;;;;;25.00;21.50;;;;;8.58;66.35;101714.44;5079544;27;45417;-77
2021/11/30 10:26:29;;;;;;;;;28.25;26.75;;;;;8.63;66.50;101710.03;5652626;22;46167;-77
2021/11/30 10:29:05;;;;;;;;;27.50;22.25;;;;;8.73;66.41;101713.44;5028529;28;45468;-77
2021/11/30 10:31:43;;;;;;;;;29.75;26.75;;;;;8.80;66.59;101716.88;5033428;28;45369;-77
2021/11/30 10:34:14;;;;;;;;;29.00;27.25;;;;;8.81;66.38;101700.25;5036136;28;45414;-77
2021/11/30 10:36:52;;;;;;;;;28.75;28.50;;;;;8.89;66.28;101701.03;5034851;28;46338;-77
2021/11/30 10:39:27;;;;;;;;;28.25;22.25;;;;;8.92;66.45;101700.13;5042198;28;45953;-77
2021/11/30 10:41:53;;;;;;;;;27.25;21.50;;;;;9.01;66.46;101707.06;5041929;28;45219;-77
2021/11/30 10:44:30;;;;;;;;;20.25;19.50;;;;;9.04;66.20;101714.88;5037741;28;45713;-77
2021/11/30 10:47:11;;;;;;;;;22.50;20.00;;;;;9.10;66.01;101690.34;5041591;28;45511;-77
2021/11/30 10:49:47;;;;;;;;;22.75;20.00;;;;;9.11;66.30;101702.59;5042089;28;45755;-77
2021/11/30 10:52:21;;;;;;;;;36.25;31.25;;;;;9.15;66.24;101712.13;5042013;28;45377;-77
2021/11/30 10:54:48;;;;;;;;;25.75;20.00;;;;;9.17;66.25;101701.63;5057649;28;45578;-77
2021/11/30 10:57:13;;;;;;;;;20.00;19.00;;;;;9.19;65.91;101705.97;5040163;28;46554;-77
2021/11/30 10:59:39;;;;;;;;;24.00;17.00;;;;;9.25;66.01;101709.41;5054733;28;45459;-77
2021/11/30 11:02:04;;;;;;;;;20.25;17.00;;;;;9.27;66.27;101703.25;5031836;28;45328;-77
2021/11/30 11:04:33;;;;;;;;;29.25;23.50;;;;;9.32;66.40;101700.56;5049709;28;46346;-77
2021/11/30 11:07:11;;;;;;;;;25.50;20.00;;;;;9.37;66.13;101696.16;5038736;28;46419;-77
2021/11/30 11:09:50;;;;;;;;;23.25;21.00;;;;;9.37;65.97;101690.91;5033305;28;45721;-77
2021/11/30 11:12:27;;;;;;;;;22.25;19.50;;;;;9.41;66.13;101692.59;5035205;28;45441;-77
2021/11/30 11:14:54;;;;;;;;;20.00;18.50;;;;;9.42;65.77;101694.34;5036559;28;46341;-77
2021/11/30 11:17:31;;;;;;;;;22.75;19.25;;;;;9.44;66.06;101694.31;5030619;28;46430;-77
2021/11/30 11:19:57;;;;;;;;;22.00;20.50;;;;;9.50;65.64;101682.88;5041234;28;45279;-77
2021/11/30 11:22:26;;;;;;;;;25.00;22.25;;;;;9.51;65.94;101671.47;5041890;28;45235;-77
2021/11/30 11:24:56;;;;;;;;;27.75;24.75;;;;;9.53;65.77;101673.19;5040623;28;45346;-77
2021/11/30 11:27:37;;;;;;;;;19.75;19.50;;;;;9.52;65.91;101671.47;5040279;28;46618;-77
2021/11/30 11:30:04;;;;;;;;;21.50;17.25;;;;;9.52;65.81;101657.47;5041392;28;45468;-77
2021/11/30 11:32:30;;;;;;;;;21.25;20.50;;;;;9.57;66.11;101660.91;5040189;28;45232;-77
2021/11/30 11:34:57;;;;;;;;;22.25;19.50;;;;;9.58;65.71;101657.38;5026381;28;45272;-77
2021/11/30 11:37:23;;;;;;;;;19.75;16.50;;;;;9.63;66.06;101662.59;5035957;28;45468;-77